Time;durP1;ratioP1;P1;durP2;ratioP2;P2;SDS_P1;SDS_P2;PMS_P1;PMS_P2;Temp;Humidity;BMP_temperature;BMP_pressure;BME280_temperature;BME280_humidity;BME280_pressure;Samples;Min_cycle;Max_cycle;Signal;HPM_P1;HPM_P2
2021/12/18 00:00:30;;;;;;;5.80;1.80;;;;;;;;;;5032251;28;20180;-52
2021/12/18 00:02:56;;;;;;;4.20;1.83;;;;;;;;;;5032316;28;20034;-55
2021/12/18 00:05:22;;;;;;;2.83;1.90;;;;;;;;;;5023671;28;20025;-57
2021/12/18 00:07:48;;;;;;;4.63;2.00;;;;;;;;;;5028601;28;20033;-55
2021/12/18 00:10:14;;;;;;;5.22;2.10;;;;;;;;;;5037581;28;20096;-52
2021/12/18 00:12:47;;;;;;;3.10;1.77;;;;;;;;;;5036387;28;20057;-55
2021/12/18 00:15:13;;;;;;;3.72;1.88;;;;;;;;;;5040403;28;20027;-55
2021/12/18 00:17:39;;;;;;;2.80;1.75;;;;;;;;;;5034667;28;20033;-52
2021/12/18 00:20:06;;;;;;;2.38;1.65;;;;;;;;;;5041786;28;20548;-54
2021/12/18 00:22:32;;;;;;;3.47;1.83;;;;;;;;;;5033517;28;20120;-51
2021/12/18 00:24:58;;;;;;;5.22;1.80;;;;;;;;;;5032087;28;20053;-55
2021/12/18 00:27:24;;;;;;;2.80;1.70;;;;;;;;;;5033166;28;20628;-54
2021/12/18 00:29:50;;;;;;;3.40;1.90;;;;;;;;;;5036639;28;20112;-54
2021/12/18 00:32:16;;;;;;;6.05;1.42;;;;;;;;;;5033632;28;20087;-53
2021/12/18 00:34:42;;;;;;;4.72;1.95;;;;;;;;;;5032543;28;20050;-53
2021/12/18 00:37:08;;;;;;;3.13;1.77;;;;;;;;;;5035519;28;20109;-53
2021/12/18 00:39:38;;;;;;;3.60;1.83;;;;;;;;;;5040456;28;20040;-54
2021/12/18 00:42:20;;;;;;;3.28;1.75;;;;;;;;;;5034384;28;20521;-52
2021/12/18 00:44:46;;;;;;;3.67;2.13;;;;;;;;;;5029710;28;20029;-51
2021/12/18 00:47:12;;;;;;;2.45;1.35;;;;;;;;;;5027196;28;20022;-53
2021/12/18 00:49:38;;;;;;;4.28;2.08;;;;;;;;;;5029418;28;20173;-52
2021/12/18 00:52:05;;;;;;;3.38;1.55;;;;;;;;;;5028680;28;20029;-56
2021/12/18 00:54:31;;;;;;;3.13;1.80;;;;;;;;;;5033576;28;20030;-53
2021/12/18 00:56:58;;;;;;;4.45;1.92;;;;;;;;;;5027300;28;20095;-53
2021/12/18 00:59:24;;;;;;;3.33;1.73;;;;;;;;;;5035179;28;20029;-53
2021/12/18 01:01:50;;;;;;;3.47;1.50;;;;;;;;;;5034215;28;20033;-51
2021/12/18 01:04:16;;;;;;;5.07;1.92;;;;;;;;;;5029017;28;20072;-51
2021/12/18 01:06:42;;;;;;;3.55;1.60;;;;;;;;;;5017892;28;20021;-50
2021/12/18 01:09:08;;;;;;;2.58;1.48;;;;;;;;;;5025426;28;20389;-57
2021/12/18 01:11:42;;;;;;;1.90;1.30;;;;;;;;;;5024503;28;20037;-55
2021/12/18 01:14:28;;;;;;;;;;;;;;;;;;5032039;28;20084;-57
2021/12/18 01:22:42;;;;;;;2.08;1.42;;;;;;;;;;5029053;28;19948;-52
2021/12/18 01:22:45;;;;;;;3.88;1.83;;;;;;;;;;5021113;28;20486;-53
2021/12/18 01:25:11;;;;;;;3.10;1.75;;;;;;;;;;5026457;28;20036;-52
2021/12/18 01:27:37;;;;;;;3.08;1.65;;;;;;;;;;5033111;28;20028;-54
2021/12/18 01:30:07;;;;;;;3.45;1.90;;;;;;;;;;5024135;28;20109;-51
2021/12/18 01:32:33;;;;;;;2.70;1.15;;;;;;;;;;5030982;28;20112;-51
2021/12/18 01:35:01;;;;;;;2.25;1.20;;;;;;;;;;5024453;28;20073;-51
2021/12/18 01:37:27;;;;;;;4.68;1.80;;;;;;;;;;5026024;28;20029;-55
2021/12/18 01:39:54;;;;;;;2.70;1.70;;;;;;;;;;5025790;28;20485;-54
2021/12/18 01:43:00;;;;;;;3.67;1.70;;;;;;;;;;5019756;28;20037;-51
2021/12/18 01:45:23;;;;;;;2.90;1.80;;;;;;;;;;5033907;28;20474;-54
2021/12/18 01:53:20;;;;;;;2.25;1.40;;;;;;;;;;5041983;28;20035;-52
2021/12/18 01:55:48;;;;;;;2.83;1.50;;;;;;;;;;5036012;28;20484;-52
2021/12/18 01:58:19;;;;;;;2.08;1.23;;;;;;;;;;5036247;28;20032;-51
2021/12/18 02:00:45;;;;;;;2.70;1.45;;;;;;;;;;5036572;28;20113;-55
2021/12/18 02:03:11;;;;;;;2.85;1.38;;;;;;;;;;5038151;28;20433;-53
2021/12/18 02:05:38;;;;;;;2.20;1.20;;;;;;;;;;5038867;28;20029;-54
2021/12/18 02:08:04;;;;;;;3.30;1.75;;;;;;;;;;5038891;28;20045;-52
2021/12/18 02:10:42;;;;;;;4.00;1.65;;;;;;;;;;5040819;28;20043;-55
2021/12/18 02:21:25;;;;;;;2.38;1.17;;;;;;;;;;5024509;28;20163;-55
2021/12/18 02:23:51;;;;;;;2.92;1.60;;;;;;;;;;5025457;28;20520;-53
2021/12/18 02:26:17;;;;;;;4.63;1.60;;;;;;;;;;5026131;28;20079;-54
2021/12/18 02:28:47;;;;;;;1.63;1.20;;;;;;;;;;5026939;28;20030;-56
2021/12/18 02:31:13;;;;;;;3.50;1.63;;;;;;;;;;5025916;28;20037;-55
2021/12/18 02:33:39;;;;;;;2.92;1.80;;;;;;;;;;5028992;28;20095;-53
2021/12/18 02:36:08;;;;;;;4.88;1.98;;;;;;;;;;5030401;28;20409;-54
2021/12/18 02:39:02;;;;;;;2.53;1.40;;;;;;;;;;5028814;28;20040;-55
2021/12/18 02:41:34;;;;;;;;;;;;;;;;;;5030589;28;20131;-54
2021/12/18 02:44:01;;;;;;;5.88;1.52;;;;;;;;;;5035381;28;19916;-52
2021/12/18 02:46:27;;;;;;;1.90;1.27;;;;;;;;;;5035390;28;20033;-55
2021/12/18 02:48:54;;;;;;;2.72;1.40;;;;;;;;;;5028826;28;20037;-51
2021/12/18 02:51:20;;;;;;;2.92;1.58;;;;;;;;;;5033548;28;20038;-52
2021/12/18 02:53:48;;;;;;;2.38;1.50;;;;;;;;;;5030088;28;20034;-53
2021/12/18 02:56:15;;;;;;;3.45;1.70;;;;;;;;;;5032074;28;20036;-55
2021/12/18 02:58:45;;;;;;;4.60;2.00;;;;;;;;;;5038319;28;20720;-55
2021/12/18 03:01:12;;;;;;;3.03;1.48;;;;;;;;;;5032448;28;20108;-56
2021/12/18 03:03:41;;;;;;;3.38;1.60;;;;;;;;;;5027722;28;20044;-56
2021/12/18 03:09:18;;;;;;;4.97;1.92;;;;;;;;;;5032402;28;20062;-57
2021/12/18 03:23:05;;;;;;;3.63;1.80;;;;;;;;;;5034954;28;20132;-53
2021/12/18 03:25:34;;;;;;;2.45;1.15;;;;;;;;;;5034264;28;20538;-53
2021/12/18 03:28:03;;;;;;;4.05;1.70;;;;;;;;;;5038665;28;20507;-55
2021/12/18 03:30:29;;;;;;;3.20;1.80;;;;;;;;;;5033201;28;20116;-51
2021/12/18 03:32:55;;;;;;;3.40;1.60;;;;;;;;;;5037615;28;20111;-52
2021/12/18 03:35:22;;;;;;;4.22;1.83;;;;;;;;;;5033418;28;20116;-54
2021/12/18 03:37:48;;;;;;;4.30;1.65;;;;;;;;;;5037369;28;20055;-56
2021/12/18 03:40:19;;;;;;;3.05;1.70;;;;;;;;;;5029909;28;20026;-54
2021/12/18 03:42:45;;;;;;;4.00;1.85;;;;;;;;;;5036333;28;20090;-53
2021/12/18 03:45:11;;;;;;;3.40;1.88;;;;;;;;;;5027983;28;20032;-56
2021/12/18 03:47:37;;;;;;;3.92;1.83;;;;;;;;;;5035310;28;20071;-53
2021/12/18 03:50:04;;;;;;;3.83;1.70;;;;;;;;;;5020716;28;20038;-54
2021/12/18 03:52:30;;;;;;;2.88;1.95;;;;;;;;;;5033903;28;20059;-56
2021/12/18 03:54:56;;;;;;;2.03;1.15;;;;;;;;;;5024586;28;20113;-51
2021/12/18 03:57:22;;;;;;;3.92;1.80;;;;;;;;;;5024023;28;20508;-54
2021/12/18 03:59:48;;;;;;;3.70;1.90;;;;;;;;;;5027153;28;20048;-56
2021/12/18 04:02:14;;;;;;;3.97;2.03;;;;;;;;;;5030588;28;20072;-56
2021/12/18 04:04:40;;;;;;;3.65;1.58;;;;;;;;;;5028742;28;20117;-56
2021/12/18 04:07:07;;;;;;;2.67;1.50;;;;;;;;;;5031062;28;20370;-56
2021/12/18 04:09:34;;;;;;;3.85;1.80;;;;;;;;;;5034614;28;20045;-56
2021/12/18 04:12:00;;;;;;;3.55;1.60;;;;;;;;;;5043415;28;20110;-54
2021/12/18 04:14:26;;;;;;;3.03;1.70;;;;;;;;;;5034377;28;20037;-54
2021/12/18 04:16:52;;;;;;;3.15;1.58;;;;;;;;;;5034555;28;20037;-53
2021/12/18 04:19:19;;;;;;;3.80;1.60;;;;;;;;;;5033379;28;20079;-54
2021/12/18 04:21:45;;;;;;;5.45;2.03;;;;;;;;;;5033124;28;20047;-56
2021/12/18 04:24:11;;;;;;;3.35;1.80;;;;;;;;;;5034376;28;20033;-55
2021/12/18 04:26:37;;;;;;;2.83;1.60;;;;;;;;;;5035730;28;20027;-54
2021/12/18 04:29:06;;;;;;;3.00;1.85;;;;;;;;;;5034630;28;20446;-51
2021/12/18 04:31:32;;;;;;;3.28;1.80;;;;;;;;;;5036821;28;20045;-53
2021/12/18 04:33:58;;;;;;;4.32;1.70;;;;;;;;;;5034643;28;20067;-52
2021/12/18 04:36:24;;;;;;;3.70;1.45;;;;;;;;;;5036759;28;20033;-53
2021/12/18 04:38:51;;;;;;;4.13;1.73;;;;;;;;;;5037724;28;20116;-54
2021/12/18 04:41:23;;;;;;;3.00;1.45;;;;;;;;;;5034623;28;20120;-54
2021/12/18 04:43:49;;;;;;;3.35;1.77;;;;;;;;;;5033490;28;20038;-52
2021/12/18 04:46:15;;;;;;;3.25;1.55;;;;;;;;;;5027083;28;20507;-54
2021/12/18 04:48:41;;;;;;;2.55;1.42;;;;;;;;;;5033629;28;20124;-52
2021/12/18 04:51:07;;;;;;;3.08;1.33;;;;;;;;;;5033453;28;20045;-53
2021/12/18 04:53:33;;;;;;;2.75;1.20;;;;;;;;;;5036052;28;20057;-51
2021/12/18 04:55:59;;;;;;;6.28;1.75;;;;;;;;;;5025935;28;20049;-53
2021/12/18 04:58:25;;;;;;;2.92;1.70;;;;;;;;;;5029752;28;20044;-55
2021/12/18 05:00:51;;;;;;;2.95;1.25;;;;;;;;;;5033142;28;20148;-54
2021/12/18 05:03:18;;;;;;;2.53;1.35;;;;;;;;;;5038415;28;20033;-56
2021/12/18 05:05:44;;;;;;;2.78;1.50;;;;;;;;;;5024830;28;20095;-56
2021/12/18 05:08:10;;;;;;;2.85;1.48;;;;;;;;;;5030086;28;20020;-56
2021/12/18 05:10:36;;;;;;;1.85;1.17;;;;;;;;;;5026459;28;20386;-55
2021/12/18 05:13:03;;;;;;;5.13;1.55;;;;;;;;;;5036569;28;20386;-53
2021/12/18 05:15:29;;;;;;;3.35;1.73;;;;;;;;;;5033533;28;20112;-53
2021/12/18 05:17:55;;;;;;;5.18;1.80;;;;;;;;;;5019929;28;20466;-56
2021/12/18 05:20:21;;;;;;;3.63;1.40;;;;;;;;;;5029988;28;20033;-55
2021/12/18 05:22:47;;;;;;;1.95;1.20;;;;;;;;;;5034934;28;20033;-52
2021/12/18 05:25:13;;;;;;;2.78;1.33;;;;;;;;;;5035042;28;20078;-54
2021/12/18 05:27:39;;;;;;;1.88;1.20;;;;;;;;;;5030663;28;20079;-56
2021/12/18 05:30:06;;;;;;;1.80;1.00;;;;;;;;;;5029193;28;20034;-50
2021/12/18 05:32:32;;;;;;;1.40;1.00;;;;;;;;;;5036175;28;20041;-55
2021/12/18 05:34:58;;;;;;;1.65;1.02;;;;;;;;;;5029719;28;20449;-53
2021/12/18 05:40:09;;;;;;;2.60;1.13;;;;;;;;;;5034435;28;20039;-55
2021/12/18 05:42:35;;;;;;;1.92;1.20;;;;;;;;;;5026513;28;20513;-55
2021/12/18 05:45:00;;;;;;;4.57;1.00;;;;;;;;;;5029525;28;20033;-51
2021/12/18 05:47:26;;;;;;;4.15;0.93;;;;;;;;;;5031993;28;20136;-55
2021/12/18 05:49:52;;;;;;;2.05;0.88;;;;;;;;;;5027807;28;20033;-54
2021/12/18 05:52:18;;;;;;;3.33;1.42;;;;;;;;;;5033774;28;20029;-52
2021/12/18 05:54:44;;;;;;;1.10;0.80;;;;;;;;;;5033656;28;20608;-52
2021/12/18 05:57:14;;;;;;;2.78;1.30;;;;;;;;;;5029326;28;20028;-52
2021/12/18 05:59:40;;;;;;;2.70;1.13;;;;;;;;;;5035103;28;20438;-53
2021/12/18 06:02:06;;;;;;;2.55;1.30;;;;;;;;;;5035655;28;20041;-51
2021/12/18 06:04:32;;;;;;;2.33;1.20;;;;;;;;;;5036333;28;20505;-54
2021/12/18 06:07:04;;;;;;;2.58;1.30;;;;;;;;;;5034207;28;20026;-55
2021/12/18 06:09:31;;;;;;;4.88;1.40;;;;;;;;;;5025496;28;20112;-56
2021/12/18 06:11:57;;;;;;;2.30;1.33;;;;;;;;;;5038212;28;20394;-56
2021/12/18 06:14:24;;;;;;;2.78;1.30;;;;;;;;;;5032163;28;20109;-56
2021/12/18 06:16:49;;;;;;;2.38;1.15;;;;;;;;;;5034421;28;20090;-56
2021/12/18 06:19:15;;;;;;;3.78;1.48;;;;;;;;;;5033693;28;20033;-56
2021/12/18 06:21:42;;;;;;;3.15;1.40;;;;;;;;;;5031958;28;20093;-56
2021/12/18 06:24:08;;;;;;;1.58;1.10;;;;;;;;;;5032771;28;20638;-56
2021/12/18 06:26:34;;;;;;;3.28;1.58;;;;;;;;;;5037750;28;20024;-56
2021/12/18 06:29:00;;;;;;;2.38;1.20;;;;;;;;;;5034135;28;20084;-54
2021/12/18 06:31:26;;;;;;;3.67;1.30;;;;;;;;;;5034890;28;20105;-52
2021/12/18 06:33:52;;;;;;;2.35;1.40;;;;;;;;;;5027549;28;20132;-55
2021/12/18 06:36:18;;;;;;;2.35;1.40;;;;;;;;;;5035651;28;20442;-52
2021/12/18 06:38:44;;;;;;;2.65;1.60;;;;;;;;;;5035197;28;20033;-53
2021/12/18 06:41:10;;;;;;;3.15;1.60;;;;;;;;;;5031479;28;20029;-55
2021/12/18 06:43:36;;;;;;;3.60;2.30;;;;;;;;;;5029967;28;20508;-56
2021/12/18 06:46:02;;;;;;;3.80;2.25;;;;;;;;;;5022370;28;20155;-55
2021/12/18 06:48:28;;;;;;;4.18;2.17;;;;;;;;;;5030424;28;20025;-52
2021/12/18 06:50:55;;;;;;;3.83;2.03;;;;;;;;;;5029642;28;20472;-56
2021/12/18 06:53:21;;;;;;;5.13;2.65;;;;;;;;;;5029616;28;20029;-51
2021/12/18 06:55:47;;;;;;;5.20;2.33;;;;;;;;;;5025908;28;20171;-53
2021/12/18 06:58:13;;;;;;;3.90;2.13;;;;;;;;;;5034157;28;20034;-55
2021/12/18 07:00:39;;;;;;;6.57;2.72;;;;;;;;;;5035096;28;20029;-56
2021/12/18 07:03:05;;;;;;;5.07;2.42;;;;;;;;;;5028791;28;20427;-55
2021/12/18 07:05:31;;;;;;;3.80;2.05;;;;;;;;;;5037554;28;20021;-51
2021/12/18 07:07:57;;;;;;;4.15;2.13;;;;;;;;;;5034555;28;20049;-56
2021/12/18 07:10:23;;;;;;;4.20;1.77;;;;;;;;;;5028325;28;20044;-56
2021/12/18 07:12:49;;;;;;;3.25;1.40;;;;;;;;;;5035105;28;20500;-56
2021/12/18 07:15:15;;;;;;;2.83;1.67;;;;;;;;;;5037146;28;20084;-56
2021/12/18 07:17:41;;;;;;;3.35;2.00;;;;;;;;;;5035636;28;20116;-55
2021/12/18 07:20:08;;;;;;;2.28;1.20;;;;;;;;;;5037207;28;20049;-52
2021/12/18 07:22:34;;;;;;;2.20;1.20;;;;;;;;;;5036352;28;20100;-55
2021/12/18 07:25:00;;;;;;;1.63;0.93;;;;;;;;;;5036064;28;20037;-55
2021/12/18 07:27:26;;;;;;;1.25;0.70;;;;;;;;;;5035393;28;20029;-52
2021/12/18 07:29:52;;;;;;;1.75;1.15;;;;;;;;;;5032843;28;20513;-56
2021/12/18 07:32:18;;;;;;;1.95;1.13;;;;;;;;;;5036725;28;20029;-56
2021/12/18 07:34:44;;;;;;;2.92;0.82;;;;;;;;;;5034155;28;20394;-54
2021/12/18 07:37:10;;;;;;;3.53;1.10;;;;;;;;;;5034502;28;20056;-53
2021/12/18 07:39:36;;;;;;;3.67;1.35;;;;;;;;;;5034095;28;20053;-56
2021/12/18 07:42:03;;;;;;;1.85;1.10;;;;;;;;;;5033606;28;20033;-50
2021/12/18 07:44:29;;;;;;;1.85;1.08;;;;;;;;;;5038889;28;20112;-51
2021/12/18 07:46:55;;;;;;;2.17;1.33;;;;;;;;;;5039264;28;20025;-51
2021/12/18 07:49:21;;;;;;;4.38;2.00;;;;;;;;;;5033542;28;20108;-54
2021/12/18 07:51:47;;;;;;;2.30;1.27;;;;;;;;;;5030758;28;20454;-51
2021/12/18 07:54:13;;;;;;;2.28;1.42;;;;;;;;;;5030855;28;20030;-54
2021/12/18 07:56:39;;;;;;;2.78;1.45;;;;;;;;;;5036033;28;20099;-55
2021/12/18 07:59:05;;;;;;;2.30;1.55;;;;;;;;;;5030726;28;20109;-53
2021/12/18 08:01:31;;;;;;;2.15;1.45;;;;;;;;;;5034378;28;20033;-53
2021/12/18 08:03:57;;;;;;;2.83;1.75;;;;;;;;;;5031774;28;20128;-56
2021/12/18 08:06:23;;;;;;;4.70;1.50;;;;;;;;;;5033716;28;20025;-56
2021/12/18 08:08:50;;;;;;;4.43;1.80;;;;;;;;;;5035098;28;20055;-56
2021/12/18 08:11:16;;;;;;;4.35;1.75;;;;;;;;;;5047364;28;20117;-56
2021/12/18 08:13:42;;;;;;;3.60;1.85;;;;;;;;;;5037884;28;20117;-54
2021/12/18 08:16:08;;;;;;;3.17;1.63;;;;;;;;;;5043216;28;20025;-56
2021/12/18 08:18:34;;;;;;;3.45;2.15;;;;;;;;;;5042815;28;20091;-57
2021/12/18 08:21:00;;;;;;;3.90;2.05;;;;;;;;;;5039788;28;20029;-54
2021/12/18 08:23:26;;;;;;;2.95;1.75;;;;;;;;;;5033666;28;20124;-52
2021/12/18 08:25:52;;;;;;;2.95;1.45;;;;;;;;;;5033835;28;20036;-55
2021/12/18 08:28:18;;;;;;;3.13;1.25;;;;;;;;;;5038437;28;20383;-51
2021/12/18 08:30:44;;;;;;;2.42;1.10;;;;;;;;;;5020323;28;20029;-55
2021/12/18 08:33:10;;;;;;;1.52;0.88;;;;;;;;;;5034348;28;20129;-52
2021/12/18 08:35:37;;;;;;;0.95;0.85;;;;;;;;;;5033589;28;20104;-52
2021/12/18 08:38:03;;;;;;;3.72;1.17;;;;;;;;;;5032352;28;20033;-52
2021/12/18 08:40:30;;;;;;;1.52;0.85;;;;;;;;;;5033224;28;20029;-51
2021/12/18 08:42:56;;;;;;;3.40;1.10;;;;;;;;;;5029725;28;20032;-51
2021/12/18 08:45:24;;;;;;;1.45;0.90;;;;;;;;;;5028069;28;20064;-53
2021/12/18 08:47:50;;;;;;;1.63;0.93;;;;;;;;;;5032690;28;20045;-54
2021/12/18 08:50:17;;;;;;;1.90;1.20;;;;;;;;;;5032785;28;20057;-55
2021/12/18 08:52:44;;;;;;;1.85;1.02;;;;;;;;;;5028057;28;20029;-52
2021/12/18 08:55:10;;;;;;;2.97;1.23;;;;;;;;;;5033471;28;20400;-55
2021/12/18 08:57:36;;;;;;;3.40;1.48;;;;;;;;;;5034553;28;20096;-52
2021/12/18 09:00:03;;;;;;;4.78;1.27;;;;;;;;;;5032227;28;20493;-52
2021/12/18 09:02:29;;;;;;;2.15;1.20;;;;;;;;;;5032420;28;20030;-54
2021/12/18 09:04:55;;;;;;;3.33;1.50;;;;;;;;;;5032337;28;20025;-56
2021/12/18 09:07:22;;;;;;;2.13;1.15;;;;;;;;;;5032160;28;20021;-57
2021/12/18 09:09:48;;;;;;;2.53;1.45;;;;;;;;;;5021061;28;20044;-55
2021/12/18 09:12:14;;;;;;;5.20;1.38;;;;;;;;;;5031408;28;20532;-52
2021/12/18 09:14:41;;;;;;;2.95;1.42;;;;;;;;;;5031493;28;20034;-54
2021/12/18 09:17:07;;;;;;;3.08;1.45;;;;;;;;;;5032550;28;20022;-55
2021/12/18 09:19:33;;;;;;;3.60;1.60;;;;;;;;;;5031937;28;20032;-56
2021/12/18 09:21:59;;;;;;;3.75;1.63;;;;;;;;;;5030505;28;20030;-55
2021/12/18 09:24:26;;;;;;;2.58;1.35;;;;;;;;;;5031285;28;20057;-53
2021/12/18 09:26:52;;;;;;;3.20;1.50;;;;;;;;;;5031649;28;20025;-54
2021/12/18 09:29:19;;;;;;;3.42;1.73;;;;;;;;;;5030858;28;20030;-55
2021/12/18 09:31:45;;;;;;;3.38;1.90;;;;;;;;;;5030180;28;20116;-54
2021/12/18 09:34:11;;;;;;;6.65;2.30;;;;;;;;;;5023343;28;20069;-56
2021/12/18 09:36:37;;;;;;;7.22;2.38;;;;;;;;;;5020144;28;20037;-55
2021/12/18 09:39:04;;;;;;;3.53;1.77;;;;;;;;;;5026647;28;20033;-54
2021/12/18 09:41:30;;;;;;;5.22;2.47;;;;;;;;;;5020016;28;20034;-55
2021/12/18 09:43:56;;;;;;;5.43;2.60;;;;;;;;;;5031419;28;20040;-54
2021/12/18 09:46:22;;;;;;;4.88;2.35;;;;;;;;;;5025940;28;20105;-51
2021/12/18 09:48:48;;;;;;;5.25;2.45;;;;;;;;;;5021308;28;20428;-53
2021/12/18 09:51:23;;;;;;;5.60;2.20;;;;;;;;;;5026478;28;20135;-50
2021/12/18 09:53:51;;;;;;;4.85;1.98;;;;;;;;;;5024943;28;20034;-56
2021/12/18 09:56:17;;;;;;;5.90;2.30;;;;;;;;;;5027391;28;20041;-56
2021/12/18 09:58:43;;;;;;;5.85;2.00;;;;;;;;;;5028346;28;20077;-53
2021/12/18 10:01:09;;;;;;;4.47;1.92;;;;;;;;;;5034826;28;20041;-55
2021/12/18 10:03:54;;;;;;;3.58;1.48;;;;;;;;;;5032196;28;20018;-57
2021/12/18 10:06:40;;;;;;;4.10;1.70;;;;;;;;;;5028979;28;20022;-54
2021/12/18 10:09:11;;;;;;;4.20;2.10;;;;;;;;;;5031524;28;20033;-55
2021/12/18 10:11:48;;;;;;;4.15;1.88;;;;;;;;;;5023405;28;20428;-54
2021/12/18 10:14:15;;;;;;;7.50;1.50;;;;;;;;;;5024846;28;20033;-56
2021/12/18 10:16:44;;;;;;;4.00;1.70;;;;;;;;;;5028531;28;20041;-56
2021/12/18 10:19:24;;;;;;;2.58;1.50;;;;;;;;;;5031850;28;20053;-57
2021/12/18 10:21:57;;;;;;;3.08;1.42;;;;;;;;;;5030824;28;20122;-57
2021/12/18 10:24:23;;;;;;;;;;;;;;;;;;5031547;28;20080;-50
2021/12/18 10:26:49;;;;;;;3.60;1.77;;;;;;;;;;5029673;28;19913;-56
2021/12/18 10:29:24;;;;;;;5.00;1.90;;;;;;;;;;5031577;28;20389;-55
2021/12/18 10:31:50;;;;;;;2.17;1.17;;;;;;;;;;5030721;28;20459;-55
2021/12/18 10:34:26;;;;;;;2.38;1.35;;;;;;;;;;5031418;28;20132;-54
2021/12/18 10:37:11;;;;;;;3.35;1.50;;;;;;;;;;5027748;28;20485;-55
2021/12/18 10:39:39;;;;;;;3.70;1.30;;;;;;;;;;5027619;28;20042;-56
2021/12/18 10:42:16;;;;;;;2.53;1.30;;;;;;;;;;5031111;28;20033;-54
2021/12/18 10:45:01;;;;;;;2.78;1.08;;;;;;;;;;5031191;28;20025;-52
2021/12/18 10:47:41;;;;;;;3.28;1.50;;;;;;;;;;5026073;28;20087;-56
2021/12/18 10:50:15;;;;;;;3.08;1.38;;;;;;;;;;5029577;28;20025;-54
2021/12/18 10:52:41;;;;;;;4.18;1.95;;;;;;;;;;5032420;28;20445;-55
2021/12/18 10:55:07;;;;;;;4.03;1.58;;;;;;;;;;5030862;28;20033;-55
2021/12/18 10:57:33;;;;;;;3.22;1.23;;;;;;;;;;5032863;28;20136;-55
2021/12/18 11:00:00;;;;;;;3.58;1.55;;;;;;;;;;5032063;28;20026;-53
2021/12/18 11:02:27;;;;;;;3.70;1.90;;;;;;;;;;5033941;28;20026;-56
2021/12/18 11:05:12;;;;;;;2.33;1.30;;;;;;;;;;5034741;28;20087;-55
2021/12/18 11:07:42;;;;;;;5.43;1.90;;;;;;;;;;5020214;28;20091;-54
2021/12/18 11:10:53;;;;;;;4.28;1.92;;;;;;;;;;5031745;28;20466;-53
2021/12/18 11:13:38;;;;;;;4.05;1.33;;;;;;;;;;5030716;28;20650;-54
2021/12/18 11:16:05;;;;;;;1.38;0.95;;;;;;;;;;5029348;28;20060;-53
2021/12/18 11:18:32;;;;;;;2.13;1.08;;;;;;;;;;5032402;28;20030;-56
2021/12/18 11:20:58;;;;;;;1.33;0.75;;;;;;;;;;5032241;28;20056;-53
2021/12/18 11:23:37;;;;;;;2.92;1.00;;;;;;;;;;5034419;28;20033;-55
2021/12/18 11:26:03;;;;;;;2.70;1.10;;;;;;;;;;5029784;28;20026;-53
2021/12/18 11:28:30;;;;;;;2.75;1.23;;;;;;;;;;5032977;28;20044;-54
2021/12/18 11:30:57;;;;;;;2.10;1.08;;;;;;;;;;5028870;28;20021;-55
2021/12/18 11:33:23;;;;;;;2.78;1.10;;;;;;;;;;5028923;28;20030;-52
2021/12/18 11:35:49;;;;;;;2.25;1.08;;;;;;;;;;5032969;28;20029;-55
2021/12/18 11:38:18;;;;;;;2.10;1.02;;;;;;;;;;5031646;28;20037;-51
2021/12/18 11:40:44;;;;;;;2.03;0.98;;;;;;;;;;5031243;28;20404;-53
2021/12/18 11:43:29;;;;;;;1.73;0.80;;;;;;;;;;5032345;28;20156;-56
2021/12/18 11:45:55;;;;;;;1.52;0.80;;;;;;;;;;5023952;28;20105;-56
2021/12/18 11:48:21;;;;;;;1.75;0.60;;;;;;;;;;5034345;28;20025;-56
2021/12/18 11:50:48;;;;;;;1.42;0.90;;;;;;;;;;5033678;28;20500;-55
2021/12/18 11:53:14;;;;;;;1.13;0.60;;;;;;;;;;5033274;28;20041;-55
2021/12/18 11:55:49;;;;;;;0.63;0.50;;;;;;;;;;5034460;28;20037;-55
2021/12/18 11:58:19;;;;;;;1.25;0.60;;;;;;;;;;5024100;28;20564;-54
2021/12/18 12:00:59;;;;;;;1.52;0.70;;;;;;;;;;5033787;28;20120;-56
2021/12/18 12:03:30;;;;;;;0.90;0.63;;;;;;;;;;5027471;28;20056;-56
2021/12/18 12:05:56;;;;;;;1.25;0.63;;;;;;;;;;5030689;28;20041;-55
2021/12/18 12:08:28;;;;;;;0.82;0.52;;;;;;;;;;5024463;28;20080;-51
2021/12/18 12:11:06;;;;;;;1.50;0.75;;;;;;;;;;5031244;28;20502;-51
2021/12/18 12:13:51;;;;;;;1.00;0.50;;;;;;;;;;5024099;28;20029;-54
2021/12/18 12:16:17;;;;;;;2.22;0.60;;;;;;;;;;5030706;28;20474;-55
2021/12/18 12:19:01;;;;;;;1.05;0.70;;;;;;;;;;5029320;28;20048;-54
2021/12/18 12:21:38;;;;;;;0.50;0.47;;;;;;;;;;5021080;28;20100;-50
2021/12/18 12:24:05;;;;;;;0.32;0.30;;;;;;;;;;5026157;28;20026;-51
2021/12/18 12:26:31;;;;;;;1.55;0.73;;;;;;;;;;5027726;28;20108;-55
2021/12/18 12:28:57;;;;;;;0.32;0.30;;;;;;;;;;5026175;28;20028;-55
2021/12/18 12:31:23;;;;;;;0.40;0.40;;;;;;;;;;5024950;28;20432;-52
2021/12/18 12:33:50;;;;;;;0.88;0.55;;;;;;;;;;5023693;28;20049;-56
2021/12/18 12:36:26;;;;;;;0.90;0.82;;;;;;;;;;5030480;28;20119;-55
2021/12/18 12:38:52;;;;;;;0.60;0.47;;;;;;;;;;5023482;28;20052;-55
2021/12/18 12:41:24;;;;;;;1.05;0.60;;;;;;;;;;5021346;28;20381;-52
2021/12/18 12:43:51;;;;;;;1.38;0.63;;;;;;;;;;5023117;28;20021;-56
2021/12/18 12:46:19;;;;;;;1.65;0.65;;;;;;;;;;5027331;28;20087;-52
2021/12/18 12:49:04;;;;;;;1.05;0.60;;;;;;;;;;5028814;28;20030;-57
2021/12/18 12:51:56;;;;;;;1.05;0.82;;;;;;;;;;5019985;28;20033;-56
2021/12/18 12:54:40;;;;;;;0.80;0.50;;;;;;;;;;5024399;28;20045;-57
2021/12/18 12:57:33;;;;;;;1.08;0.50;;;;;;;;;;5025492;28;20017;-52
2021/12/18 12:59:59;;;;;;;2.55;0.60;;;;;;;;;;5019349;28;20040;-51
2021/12/18 13:02:25;;;;;;;1.10;0.80;;;;;;;;;;5030930;28;20030;-55
2021/12/18 13:05:01;;;;;;;1.13;0.57;;;;;;;;;;5023608;28;20033;-53
2021/12/18 13:07:27;;;;;;;1.20;0.80;;;;;;;;;;5021760;28;20026;-56
2021/12/18 13:09:53;;;;;;;1.27;0.80;;;;;;;;;;5031049;28;20055;-55
2021/12/18 13:12:19;;;;;;;1.55;0.70;;;;;;;;;;5027955;28;20022;-55
2021/12/18 13:14:46;;;;;;;0.93;0.70;;;;;;;;;;5022149;28;20033;-56
2021/12/18 13:17:19;;;;;;;3.70;0.98;;;;;;;;;;5025775;28;20061;-56
2021/12/18 13:19:58;;;;;;;1.33;0.67;;;;;;;;;;5022452;28;20049;-57
2021/12/18 13:22:29;;;;;;;3.60;0.70;;;;;;;;;;5016980;28;20052;-52
2021/12/18 13:25:01;;;;;;;0.90;0.60;;;;;;;;;;5026175;28;20140;-54
2021/12/18 13:27:27;;;;;;;0.73;0.52;;;;;;;;;;5024379;28;20033;-56
2021/12/18 13:30:13;;;;;;;1.13;0.80;;;;;;;;;;5024457;28;20026;-56
2021/12/18 13:32:52;;;;;;;1.67;0.90;;;;;;;;;;5021806;28;20029;-56
2021/12/18 13:35:19;;;;;;;1.95;0.80;;;;;;;;;;5029006;28;20042;-54
2021/12/18 13:37:56;;;;;;;4.55;1.02;;;;;;;;;;5023711;28;20212;-55
2021/12/18 13:40:22;;;;;;;1.45;0.90;;;;;;;;;;5031895;28;20038;-55
2021/12/18 13:42:48;;;;;;;1.30;0.80;;;;;;;;;;5021890;28;20046;-53
2021/12/18 13:45:14;;;;;;;1.90;1.20;;;;;;;;;;5031041;28;20029;-54
2021/12/18 13:47:47;;;;;;;1.83;0.90;;;;;;;;;;5036763;28;20087;-52
2021/12/18 13:50:23;;;;;;;1.20;0.90;;;;;;;;;;5030528;28;20060;-57
2021/12/18 13:52:56;;;;;;;1.98;1.02;;;;;;;;;;5039630;28;20828;-51
2021/12/18 13:55:25;;;;;;;1.27;0.80;;;;;;;;;;5037860;28;20083;-52
2021/12/18 13:58:02;;;;;;;3.85;1.50;;;;;;;;;;5037422;28;20369;-52
2021/12/18 14:00:28;;;;;;;1.25;0.90;;;;;;;;;;5034374;28;20029;-54
2021/12/18 14:02:54;;;;;;;1.83;0.75;;;;;;;;;;5022256;28;20032;-55
2021/12/18 14:05:20;;;;;;;1.25;0.80;;;;;;;;;;5024084;28;20490;-54
2021/12/18 14:07:46;;;;;;;2.78;0.90;;;;;;;;;;5023065;28;20093;-55
2021/12/18 14:10:13;;;;;;;1.70;0.95;;;;;;;;;;5030348;28;20477;-51
2021/12/18 14:12:39;;;;;;;1.60;0.75;;;;;;;;;;5026428;28;20021;-54
2021/12/18 14:15:05;;;;;;;1.35;0.63;;;;;;;;;;5023261;28;20034;-55
2021/12/18 14:17:33;;;;;;;1.00;0.85;;;;;;;;;;5029875;28;20025;-55
2021/12/18 14:20:07;;;;;;;0.90;0.60;;;;;;;;;;5030935;28;20024;-57
2021/12/18 14:22:37;;;;;;;1.60;0.88;;;;;;;;;;5025223;28;20056;-55
2021/12/18 14:25:05;;;;;;;0.93;0.63;;;;;;;;;;5028476;28;20030;-57
2021/12/18 14:27:42;;;;;;;1.55;0.90;;;;;;;;;;5022841;28;20152;-56
2021/12/18 14:30:21;;;;;;;1.92;0.95;;;;;;;;;;5031087;28;20018;-56
2021/12/18 14:32:47;;;;;;;1.15;0.82;;;;;;;;;;5025839;28;20040;-57
2021/12/18 14:35:14;;;;;;;0.90;0.70;;;;;;;;;;5031225;28;20053;-57
2021/12/18 14:37:54;;;;;;;1.13;0.77;;;;;;;;;;5023413;28;20459;-57
2021/12/18 14:40:24;;;;;;;0.90;0.63;;;;;;;;;;5029913;28;20045;-55
2021/12/18 14:43:05;;;;;;;1.20;0.80;;;;;;;;;;5031325;28;20060;-57
2021/12/18 14:45:32;;;;;;;0.98;0.50;;;;;;;;;;5031378;28;20038;-56
2021/12/18 14:47:59;;;;;;;1.30;0.73;;;;;;;;;;5034455;28;20442;-57
2021/12/18 14:50:31;;;;;;;0.90;0.70;;;;;;;;;;5030883;28;20042;-57
2021/12/18 14:52:58;;;;;;;0.68;0.50;;;;;;;;;;5030164;28;20029;-56
2021/12/18 14:55:27;;;;;;;0.93;0.60;;;;;;;;;;5031662;28;20545;-56
2021/12/18 14:57:54;;;;;;;0.80;0.57;;;;;;;;;;5030593;28;20377;-56
2021/12/18 15:00:22;;;;;;;0.65;0.40;;;;;;;;;;5034817;28;20026;-55
2021/12/18 15:02:55;;;;;;;0.80;0.45;;;;;;;;;;5031158;28;20362;-54
2021/12/18 15:05:21;;;;;;;;;;;;;;;;;;5030957;28;20018;-56
2021/12/18 15:07:57;;;;;;;1.13;0.50;;;;;;;;;;5033843;28;19944;-57
2021/12/18 15:10:23;;;;;;;1.38;0.60;;;;;;;;;;5028146;28;20505;-52
2021/12/18 15:12:49;;;;;;;0.88;0.60;;;;;;;;;;5033882;28;20136;-52
2021/12/18 15:15:15;;;;;;;1.67;0.60;;;;;;;;;;5031854;28;20041;-57
2021/12/18 15:17:41;;;;;;;0.40;0.40;;;;;;;;;;5030356;28;20477;-57
2021/12/18 15:20:07;;;;;;;0.60;0.50;;;;;;;;;;5024734;28;20033;-54
2021/12/18 15:22:33;;;;;;;1.38;0.88;;;;;;;;;;5035084;28;20022;-56
2021/12/18 15:24:59;;;;;;;2.15;0.70;;;;;;;;;;5030037;28;20470;-52